createdAt,value
2019-03-09T00:00:42.832Z,5.80
2019-03-09T00:03:15.886Z,5.80
2019-03-09T00:05:47.536Z,5.90
2019-03-09T00:08:18.936Z,5.80
2019-03-09T00:10:52.095Z,5.80
2019-03-09T00:13:23.401Z,5.80
2019-03-09T00:15:54.822Z,5.80
2019-03-09T00:18:45.282Z,5.80
2019-03-09T00:21:17.922Z,5.80
2019-03-09T00:24:18.565Z,5.80
2019-03-09T00:27:00.142Z,5.70
2019-03-09T00:30:04.502Z,5.70
2019-03-09T00:32:38.161Z,5.60
2019-03-09T00:35:09.606Z,5.60
2019-03-09T00:37:42.157Z,5.60
2019-03-09T00:40:15.691Z,5.50
2019-03-09T00:42:49.814Z,5.50
2019-03-09T00:45:24.024Z,5.50
2019-03-09T00:47:55.377Z,5.40
2019-03-09T00:50:26.763Z,5.40
2019-03-09T00:52:59.794Z,5.40
2019-03-09T00:55:31.306Z,5.30
2019-03-09T00:58:02.793Z,5.30
2019-03-09T01:00:56.265Z,5.30
2019-03-09T01:03:29.343Z,5.20
2019-03-09T01:06:00.975Z,5.20
2019-03-09T01:08:35.555Z,5.20
2019-03-09T01:11:09.174Z,5.20
2019-03-09T01:13:40.739Z,5.20
2019-03-09T01:16:12.941Z,5.10
2019-03-09T01:18:44.366Z,5.10
2019-03-09T01:21:15.690Z,5.10
2019-03-09T01:23:46.940Z,5.00
2019-03-09T01:26:18.508Z,5.00
2019-03-09T01:28:49.917Z,5.00
2019-03-09T01:31:21.717Z,4.90
2019-03-09T01:33:54.756Z,4.90
2019-03-09T01:36:26.153Z,4.90
2019-03-09T01:39:01.706Z,4.90
2019-03-09T01:41:34.900Z,4.90
2019-03-09T01:44:08.175Z,4.80
2019-03-09T01:46:39.741Z,4.90
2019-03-09T01:49:11.156Z,4.80
2019-03-09T01:51:42.538Z,4.80
2019-03-09T01:54:15.731Z,4.80
2019-03-09T01:56:48.263Z,4.80
2019-03-09T01:59:19.659Z,4.80
2019-03-09T02:01:51.123Z,4.80
2019-03-09T02:04:22.454Z,4.80
2019-03-09T02:06:55.276Z,4.80
2019-03-09T02:09:27.420Z,4.80
2019-03-09T02:11:59.750Z,4.80
2019-03-09T02:15:29.130Z,4.80
2019-03-09T02:17:54.426Z,4.80
2019-03-09T02:20:26.396Z,4.80
2019-03-09T02:22:58.079Z,4.80
2019-03-09T02:25:31.531Z,4.80
2019-03-09T02:28:03.017Z,4.80
2019-03-09T02:30:37.689Z,4.80
2019-03-09T02:33:11.483Z,4.80
2019-03-09T02:35:44.274Z,4.80
2019-03-09T02:38:34.525Z,4.80
2019-03-09T02:41:08.033Z,4.80
2019-03-09T02:43:41.316Z,4.90
2019-03-09T02:46:14.698Z,4.90
2019-03-09T02:48:45.926Z,4.90
2019-03-09T02:51:25.118Z,4.90
2019-03-09T02:53:58.402Z,4.90
2019-03-09T02:56:31.546Z,4.90
2019-03-09T02:59:02.929Z,4.90
2019-03-09T03:01:44.394Z,4.90
2019-03-09T03:04:17.532Z,4.90
2019-03-09T03:06:48.891Z,4.90
2019-03-09T03:09:20.393Z,4.90
2019-03-09T03:11:53.853Z,4.90
2019-03-09T03:14:25.216Z,4.90
2019-03-09T03:16:57.265Z,4.90
2019-03-09T03:19:29.356Z,4.90
2019-03-09T03:22:03.110Z,4.90
2019-03-09T03:24:35.487Z,4.90
2019-03-09T03:27:07.718Z,4.90
2019-03-09T03:29:39.115Z,4.90
2019-03-09T03:32:13.356Z,4.80
2019-03-09T03:34:45.151Z,4.80
2019-03-09T03:37:16.672Z,4.80
2019-03-09T03:39:48.170Z,4.80
2019-03-09T03:42:19.736Z,4.80
2019-03-09T03:44:51.587Z,4.80
2019-03-09T03:47:23.579Z,4.80
2019-03-09T03:49:55.322Z,4.80
2019-03-09T03:52:26.870Z,4.80
2019-03-09T03:55:01.911Z,4.80
2019-03-09T03:57:33.458Z,4.80
2019-03-09T04:00:06.962Z,4.80
2019-03-09T04:02:41.647Z,4.80
2019-03-09T04:05:15.749Z,4.70
2019-03-09T04:07:47.415Z,4.70
2019-03-09T04:10:21.979Z,4.70
2019-03-09T04:12:53.466Z,4.70
2019-03-09T04:15:26.465Z,4.70
2019-03-09T04:17:57.801Z,4.70
2019-03-09T04:20:30.549Z,4.70
2019-03-09T04:23:04.507Z,4.70
2019-03-09T04:25:36.796Z,4.70
2019-03-09T04:28:09.640Z,4.70
2019-03-09T04:30:44.111Z,4.70
2019-03-09T04:33:20.611Z,4.70
2019-03-09T04:35:52.108Z,4.80
2019-03-09T04:38:26.983Z,4.80
2019-03-09T04:40:59.284Z,4.70
2019-03-09T04:43:30.645Z,4.70
2019-03-09T04:46:01.899Z,4.70
2019-03-09T04:48:39.771Z,4.70
2019-03-09T04:51:18.339Z,4.70
2019-03-09T04:53:49.340Z,4.70
2019-03-09T04:56:22.481Z,4.70
2019-03-09T04:58:55.671Z,4.70
2019-03-09T05:01:29.057Z,4.70
2019-03-09T05:04:52.611Z,4.70
2019-03-09T05:07:40.381Z,4.80
2019-03-09T05:10:23.135Z,4.80
2019-03-09T05:13:01.890Z,4.80
2019-03-09T05:15:33.457Z,4.90
2019-03-09T05:18:04.718Z,4.90
2019-03-09T05:20:36.262Z,4.90
2019-03-09T05:23:08.345Z,5.00
2019-03-09T05:25:42.628Z,5.00
2019-03-09T05:28:15.759Z,5.10
2019-03-09T05:30:49.303Z,5.10
2019-03-09T05:33:20.827Z,5.10
2019-03-09T05:35:53.562Z,5.20
2019-03-09T05:38:26.994Z,5.20
2019-03-09T05:40:58.491Z,5.20
2019-03-09T05:43:29.907Z,5.20
2019-03-09T05:46:01.204Z,5.30
2019-03-09T05:48:37.024Z,5.30
2019-03-09T05:51:09.147Z,5.40
2019-03-09T05:53:44.813Z,5.40
2019-03-09T05:56:16.195Z,5.50
2019-03-09T05:58:47.908Z,5.50
2019-03-09T06:01:22.222Z,5.60
2019-03-09T06:03:55.625Z,5.60
2019-03-09T06:06:27.180Z,5.70
2019-03-09T06:08:58.401Z,5.80
2019-03-09T06:11:29.763Z,5.80
2019-03-09T06:14:01.363Z,5.90
2019-03-09T06:16:35.120Z,5.90
2019-03-09T06:19:07.515Z,5.90
2019-03-09T06:21:42.062Z,5.90
2019-03-09T06:24:17.074Z,5.90
2019-03-09T06:26:48.650Z,5.90
2019-03-09T06:29:21.589Z,5.90
2019-03-09T06:32:35.474Z,5.90
2019-03-09T06:35:07.199Z,5.90
2019-03-09T06:37:38.793Z,5.90
2019-03-09T06:40:10.338Z,5.90
2019-03-09T06:42:47.911Z,5.90
2019-03-09T06:45:19.994Z,5.90
2019-03-09T06:47:54.724Z,5.90
2019-03-09T06:50:32.643Z,6.00
2019-03-09T06:53:16.059Z,6.00
2019-03-09T06:55:52.713Z,6.10
2019-03-09T06:58:24.906Z,6.10
2019-03-09T07:00:58.222Z,6.20
2019-03-09T07:03:29.954Z,6.30
2019-03-09T07:06:07.837Z,6.50
2019-03-09T07:08:40.833Z,6.60
2019-03-09T07:11:13.578Z,6.70
2019-03-09T07:13:52.487Z,6.80
2019-03-09T07:16:23.022Z,6.90
2019-03-09T07:18:56.634Z,7.00
2019-03-09T07:21:30.154Z,7.10
2019-03-09T07:24:06.235Z,7.20
2019-03-09T07:26:39.287Z,7.30
2019-03-09T07:29:13.844Z,7.40
2019-03-09T07:31:45.346Z,7.40
2019-03-09T07:34:24.955Z,7.50
2019-03-09T07:37:00.457Z,7.70
2019-03-09T07:39:32.219Z,8.10
2019-03-09T07:42:03.590Z,8.30
2019-03-09T07:44:34.935Z,8.40
2019-03-09T07:47:09.757Z,8.60
2019-03-09T07:49:42.965Z,8.70
2019-03-09T07:52:37.676Z,8.80
2019-03-09T07:55:14.267Z,8.90
2019-03-09T07:57:55.211Z,8.90
2019-03-09T08:00:27.565Z,9.00
2019-03-09T08:03:01.838Z,9.10
2019-03-09T08:05:36.912Z,9.10
2019-03-09T08:08:08.387Z,9.00
2019-03-09T08:10:41.255Z,9.00
2019-03-09T08:13:16.490Z,8.90
2019-03-09T08:15:47.979Z,8.90
2019-03-09T08:18:19.410Z,8.80
2019-03-09T08:20:50.970Z,8.80
2019-03-09T08:23:22.816Z,8.80
2019-03-09T08:25:54.237Z,8.80
2019-03-09T08:28:28.485Z,9.00
2019-03-09T08:31:02.280Z,9.20
2019-03-09T08:33:36.294Z,9.50
2019-03-09T08:36:07.750Z,9.80
2019-03-09T08:38:46.746Z,10.00
2019-03-09T08:41:20.442Z,10.20
2019-03-09T08:43:55.238Z,10.40
2019-03-09T08:46:26.561Z,10.50
2019-03-09T08:49:00.003Z,10.70
2019-03-09T08:51:31.173Z,10.70
2019-03-09T08:54:03.329Z,10.70
2019-03-09T08:56:34.756Z,10.70
2019-03-09T08:59:06.464Z,10.60
2019-03-09T09:01:46.452Z,10.40
2019-03-09T09:04:18.961Z,10.30
2019-03-09T09:06:51.497Z,10.20
2019-03-09T09:09:22.816Z,10.10
2019-03-09T09:11:54.699Z,10.10
2019-03-09T09:14:28.571Z,10.20
2019-03-09T09:17:01.706Z,10.20
2019-03-09T09:19:33.699Z,10.30
2019-03-09T09:22:06.798Z,10.40
2019-03-09T09:24:39.611Z,10.50
2019-03-09T09:27:13.598Z,10.60
2019-03-09T09:29:46.627Z,10.60
2019-03-09T09:32:18.375Z,10.70
2019-03-09T09:34:52.202Z,10.60
2019-03-09T09:37:23.609Z,10.50
2019-03-09T09:39:55.046Z,10.50
2019-03-09T09:42:26.616Z,10.30
2019-03-09T09:44:58.459Z,10.20
2019-03-09T09:47:29.963Z,10.00
2019-03-09T09:50:02.615Z,9.80
2019-03-09T09:52:35.723Z,9.50
2019-03-09T09:55:09.525Z,9.30
2019-03-09T09:57:42.566Z,9.20
2019-03-09T10:00:16.516Z,9.00
2019-03-09T10:02:48.053Z,8.90
2019-03-09T10:05:19.719Z,8.70
2019-03-09T10:07:51.531Z,8.60
2019-03-09T10:10:23.154Z,8.50
2019-03-09T10:12:56.107Z,8.40
2019-03-09T10:15:29.552Z,8.30
2019-03-09T10:18:01.809Z,8.30
2019-03-09T10:20:34.323Z,8.20
2019-03-09T10:23:06.759Z,8.20
2019-03-09T10:25:38.102Z,8.20
2019-03-09T10:28:10.166Z,8.10
2019-03-09T10:30:41.828Z,8.10
2019-03-09T10:33:17.668Z,8.10
2019-03-09T10:35:48.879Z,8.00
2019-03-09T10:38:20.445Z,8.00
2019-03-09T10:40:52.442Z,7.90
2019-03-09T10:43:23.637Z,7.90
2019-03-09T10:45:55.937Z,7.80
2019-03-09T10:48:28.796Z,7.70
2019-03-09T10:51:00.407Z,7.70
2019-03-09T10:53:31.773Z,7.60
2019-03-09T10:56:03.271Z,7.60
2019-03-09T10:58:34.981Z,7.60
2019-03-09T11:28:43.204Z,7.10
2019-03-09T11:31:14.649Z,7.10
2019-03-09T11:33:46.060Z,7.00
2019-03-09T11:36:17.595Z,7.00
2019-03-09T11:38:49.234Z,7.00
2019-03-09T11:41:21.016Z,7.00
2019-03-09T11:43:52.470Z,7.00
2019-03-09T11:46:23.840Z,7.00
2019-03-09T11:48:55.212Z,7.00
2019-03-09T11:51:27.299Z,7.00
2019-03-09T11:54:02.630Z,7.00
2019-03-09T11:56:34.565Z,7.00
2019-03-09T11:59:06.875Z,7.10
2019-03-09T12:01:38.545Z,7.10
2019-03-09T12:04:10.711Z,7.20
2019-03-09T12:06:42.311Z,7.20
2019-03-09T12:09:14.723Z,7.30
2019-03-09T12:11:59.142Z,7.30
2019-03-09T12:14:31.640Z,7.40
2019-03-09T12:17:03.081Z,7.40
2019-03-09T12:19:35.155Z,7.50
2019-03-09T12:22:06.446Z,7.60
2019-03-09T12:24:41.027Z,7.70
2019-03-09T12:27:12.517Z,7.80
2019-03-09T12:29:44.368Z,7.90
2019-03-09T12:32:15.848Z,8.00
2019-03-09T12:34:47.545Z,8.20
2019-03-09T12:37:19.164Z,8.40
2019-03-09T12:39:51.092Z,8.60
2019-03-09T12:42:22.670Z,8.80
2019-03-09T12:44:56.063Z,8.90
2019-03-09T12:54:08.341Z,9.20
2019-03-09T12:56:40.196Z,9.30
2019-03-09T12:59:11.800Z,9.30
2019-03-09T13:01:43.249Z,9.30
2019-03-09T13:04:14.621Z,9.10
2019-03-09T13:06:46.126Z,9.00
2019-03-09T13:09:17.518Z,8.80
2019-03-09T13:30:01.071Z,8.50
2019-03-09T13:32:37.847Z,8.40
2019-03-09T13:35:09.061Z,8.30
2019-03-09T13:37:40.659Z,8.30
2019-03-09T13:40:13.137Z,8.30
2019-03-09T13:42:44.436Z,8.30
2019-03-09T13:45:16.051Z,8.20
2019-03-09T13:47:47.677Z,8.20
2019-03-09T13:50:18.971Z,8.20
2019-03-09T13:52:50.666Z,8.20
2019-03-09T13:55:22.033Z,8.30
2019-03-09T13:57:56.524Z,8.30
2019-03-09T14:00:36.923Z,8.30
2019-03-09T14:03:05.326Z,8.30
2019-03-09T14:05:36.952Z,8.30
2019-03-09T14:08:09.735Z,8.40
2019-03-09T14:10:41.010Z,8.40
2019-03-09T14:13:12.571Z,8.40
2019-03-09T14:15:43.905Z,8.50
2019-03-09T14:18:15.965Z,8.50
2019-03-09T14:20:48.401Z,8.60
2019-03-09T14:23:20.626Z,8.60
2019-03-09T15:17:31.877Z,9.00
2019-03-09T16:23:50.904Z,6.30
2019-03-09T16:26:23.134Z,6.30
2019-03-09T16:28:53.861Z,6.30
2019-03-09T16:31:24.550Z,6.40
2019-03-09T16:33:55.352Z,6.40
2019-03-09T16:36:26.171Z,6.50
2019-03-09T16:38:58.971Z,6.50
2019-03-09T16:41:30.764Z,6.50
2019-03-09T16:44:03.165Z,6.60
2019-03-09T16:46:37.630Z,6.60
2019-03-09T16:49:09.130Z,6.60
2019-03-09T16:51:40.980Z,6.70
2019-03-09T16:54:12.786Z,6.60
2019-03-09T16:56:45.958Z,6.60
2019-03-09T16:59:18.925Z,6.60
2019-03-09T17:01:52.245Z,6.50
2019-03-09T17:04:23.733Z,6.50
2019-03-09T17:06:55.136Z,6.40
2019-03-09T17:09:26.637Z,6.40
2019-03-09T17:11:58.347Z,6.30
2019-03-09T17:14:29.947Z,6.20
2019-03-09T17:17:01.372Z,6.20
2019-03-09T17:19:32.795Z,6.10
2019-03-09T17:22:04.136Z,6.10
2019-03-09T17:24:36.084Z,6.00
2019-03-09T17:27:07.475Z,6.00
2019-03-09T17:29:38.854Z,5.90
2019-03-09T17:32:10.270Z,5.90
2019-03-09T17:34:41.597Z,5.90
2019-03-09T17:37:14.926Z,5.80
2019-03-09T17:39:46.226Z,5.80
2019-03-09T17:42:17.708Z,5.80
2019-03-09T17:44:49.138Z,5.70
2019-03-09T17:47:20.601Z,5.70
2019-03-09T17:49:53.402Z,5.70
2019-03-09T17:52:24.664Z,5.60
2019-03-09T17:54:56.216Z,5.60
2019-03-09T17:57:31.237Z,5.60
2019-03-09T18:00:02.568Z,5.60
2019-03-09T18:02:35.340Z,5.60
2019-03-09T18:05:07.753Z,5.60
2019-03-09T18:07:40.803Z,5.60
2019-03-09T18:10:18.511Z,5.60
2019-03-09T18:12:49.989Z,5.70
2019-03-09T18:15:21.355Z,5.70
2019-03-09T18:17:52.985Z,5.60
2019-03-09T18:20:24.496Z,5.60
2019-03-09T18:22:56.054Z,5.60
2019-03-09T18:25:27.785Z,5.50
2019-03-09T18:27:59.695Z,5.50
2019-03-09T18:30:31.340Z,5.50
2019-03-09T18:33:02.805Z,5.50
2019-03-09T18:35:34.549Z,5.40
2019-03-09T18:38:07.132Z,5.40
2019-03-09T18:40:45.852Z,5.40
2019-03-09T18:43:17.600Z,5.40
2019-03-09T18:45:48.927Z,5.40
2019-03-09T18:48:21.068Z,5.40
2019-03-09T18:50:53.371Z,5.40
2019-03-09T18:53:25.058Z,5.40
2019-03-09T18:55:59.505Z,5.40
2019-03-09T18:58:31.344Z,5.40
2019-03-09T19:01:02.583Z,5.40
2019-03-09T19:03:35.362Z,5.40
2019-03-09T19:06:06.722Z,5.50
2019-03-09T19:08:38.033Z,5.50
2019-03-09T19:11:11.233Z,5.50
2019-03-09T19:13:42.695Z,5.50
2019-03-09T19:16:15.632Z,5.40
2019-03-09T19:18:46.959Z,5.40
2019-03-09T19:21:18.519Z,5.40
2019-03-09T19:23:50.539Z,5.40
2019-03-09T19:26:21.921Z,5.30
2019-03-09T19:28:53.437Z,5.30
2019-03-09T19:31:32.477Z,5.30
2019-03-09T19:34:08.421Z,5.20
2019-03-09T19:36:39.824Z,5.20
2019-03-09T19:39:11.142Z,5.10
2019-03-09T19:41:42.565Z,5.10
2019-03-09T19:44:14.069Z,5.10
2019-03-09T19:46:45.437Z,5.00
2019-03-09T19:49:16.827Z,5.00
2019-03-09T19:51:49.012Z,5.00
2019-03-09T19:54:25.194Z,5.00
2019-03-09T19:56:57.014Z,4.90
2019-03-09T19:59:31.496Z,4.90
2019-03-09T20:02:02.692Z,4.90
2019-03-09T20:04:36.662Z,4.90
2019-03-09T20:07:08.041Z,4.90
2019-03-09T20:09:39.635Z,4.80
2019-03-09T20:12:13.059Z,4.80
2019-03-09T20:14:44.390Z,4.90
2019-03-09T20:17:15.982Z,4.80
2019-03-09T20:19:48.900Z,4.80
2019-03-09T20:22:20.252Z,4.80
2019-03-09T20:24:51.670Z,4.80
2019-03-09T20:27:23.012Z,4.80
2019-03-09T20:29:54.398Z,4.80
2019-03-09T20:32:25.689Z,4.80
2019-03-09T20:34:58.514Z,4.80
2019-03-09T20:37:31.468Z,4.90
2019-03-09T20:40:02.945Z,4.90
2019-03-09T20:42:36.387Z,4.90
2019-03-09T20:45:09.786Z,4.90
2019-03-09T20:47:42.250Z,4.90
2019-03-09T20:50:15.618Z,5.00
2019-03-09T20:52:47.506Z,5.00
2019-03-09T20:55:18.905Z,5.00
2019-03-09T20:57:50.666Z,5.10
2019-03-09T21:00:22.642Z,5.10
2019-03-09T21:02:54.509Z,5.20
2019-03-09T21:05:25.916Z,5.20
2019-03-09T21:07:57.896Z,5.30
2019-03-09T21:10:29.250Z,5.30
2019-03-09T21:13:05.719Z,5.40
2019-03-09T21:15:38.338Z,5.40
2019-03-09T21:18:10.261Z,5.50
2019-03-09T21:20:43.077Z,5.50
2019-03-09T21:23:14.431Z,5.60
2019-03-09T21:25:47.544Z,5.60
2019-03-09T21:28:22.194Z,5.70
2019-03-09T21:30:55.240Z,5.70
2019-03-09T21:33:28.800Z,5.80
2019-03-09T21:36:00.191Z,5.80
2019-03-09T21:38:32.390Z,5.80
2019-03-09T21:41:03.892Z,5.90
2019-03-09T21:43:39.775Z,5.90
2019-03-09T21:46:13.456Z,5.90
2019-03-09T21:48:44.964Z,6.00
2019-03-09T21:51:24.308Z,6.00
2019-03-09T21:53:56.502Z,6.00
2019-03-09T21:56:29.231Z,6.10
2019-03-09T21:59:00.708Z,6.10
2019-03-09T22:01:34.061Z,6.10
2019-03-09T22:10:17.830Z,6.20
2019-03-09T22:12:52.052Z,6.10
2019-03-09T22:15:23.821Z,6.10
2019-03-09T22:17:55.069Z,6.20
2019-03-09T22:20:32.927Z,6.20
2019-03-09T22:23:04.363Z,6.20
2019-03-09T22:25:36.530Z,6.10
2019-03-09T22:28:07.958Z,6.20
2019-03-09T22:46:40.017Z,6.10
2019-03-09T22:49:17.024Z,6.00
2019-03-09T22:51:52.509Z,6.00
2019-03-09T22:54:23.855Z,6.00
2019-03-09T22:56:57.276Z,6.00
2019-03-09T22:59:31.319Z,6.00
